Usurbil, Spain
Current Conditions -  °F | °C
As of 9:30 AM on Friday 28 Nov 2014 (Local Time) from LESO Reporting Station
Few Clouds Few Clouds  
Wind Chill: 64°   Ceiling: Unl
Heat Index: 64°   Visibility: 6mi
Dew Point: 43°   Wind: 15mph
Humidity: 45%   Direction: 150°SSE
Pressure: 29.12"   Gusts: 26mph
Location:  43.27°N, 2.05°W
Report Text: LESO 280830Z 15013G23KT 120V200 9999 FEW060 18/06 Q0986
Loading
Personal Weather Stations






























Interactive Weather Map New forecast layout! Learn more

10-Day Weather Forecast

Advertisements
Track Severe Weather on mobile